createdAt,value
2023-05-22T04:06:50.183Z,1.20
2023-05-22T04:10:22.872Z,1.10
2023-05-22T04:13:51.124Z,1.10
2023-05-22T04:17:19.773Z,1.10
2023-05-22T04:20:47.328Z,1.10
2023-05-22T04:24:15.995Z,1.10
2023-05-22T04:27:43.329Z,1.10
2023-05-22T04:31:10.865Z,1.90
2023-05-22T04:34:38.328Z,1.10
2023-05-22T04:38:06.560Z,1.10
2023-05-22T04:41:35.076Z,1.10
2023-05-22T04:45:02.289Z,1.10
2023-05-22T04:48:29.472Z,1.90
2023-05-22T04:51:57.677Z,1.10
2023-05-22T04:55:24.847Z,1.20
2023-05-22T04:58:54.181Z,1.10
2023-05-22T05:02:21.642Z,1.10
2023-05-22T05:05:49.131Z,1.10
2023-05-22T05:09:16.329Z,1.10
2023-05-22T05:12:43.235Z,1.10
2023-05-22T05:16:12.539Z,1.60
2023-05-22T05:19:39.956Z,1.10
2023-05-22T05:23:07.202Z,1.40
2023-05-22T05:26:34.261Z,1.90
2023-05-22T05:30:02.080Z,1.10
2023-05-22T05:33:32.115Z,1.20
2023-05-22T05:36:59.674Z,1.10
2023-05-22T05:40:26.696Z,1.17
2023-05-22T05:43:54.253Z,1.10
2023-05-22T05:47:24.319Z,1.10
2023-05-22T05:50:54.510Z,2.58
2023-05-22T05:54:22.141Z,1.10
2023-05-22T05:57:49.154Z,1.20
2023-05-22T06:01:16.748Z,1.30
2023-05-22T06:04:43.916Z,11.70
2023-05-22T06:08:13.527Z,1.63
2023-05-22T06:11:40.926Z,2.50
2023-05-22T06:15:08.885Z,2.50
2023-05-22T06:18:37.252Z,1.10
2023-05-22T06:22:04.767Z,1.10
2023-05-22T06:25:33.941Z,1.10
2023-05-22T06:29:00.984Z,1.30
2023-05-22T06:32:28.347Z,1.70
2023-05-22T06:35:55.972Z,1.10
2023-05-22T06:39:23.427Z,1.10
2023-05-22T06:42:52.044Z,1.45
2023-05-22T06:46:19.445Z,1.20
2023-05-22T06:49:46.462Z,3.70
2023-05-22T06:53:13.816Z,4.93
2023-05-22T06:56:41.408Z,1.60
2023-05-22T07:00:13.085Z,1.80
2023-05-22T07:03:40.384Z,1.20
2023-05-22T07:07:07.603Z,17.30
2023-05-22T07:10:34.842Z,2.40
2023-05-22T07:14:05.937Z,1.45
2023-05-22T07:17:34.924Z,4.40
2023-05-22T07:21:02.886Z,2.22
2023-05-22T07:24:36.200Z,5.78
2023-05-22T07:28:08.721Z,6.18
2023-05-22T07:31:39.378Z,5.97
2023-05-22T07:35:07.702Z,1.50
2023-05-22T07:38:35.031Z,1.67
2023-05-22T07:42:03.139Z,10.10
2023-05-22T07:45:30.427Z,2.00
2023-05-22T07:49:01.955Z,4.55
2023-05-22T07:52:30.438Z,1.50
2023-05-22T07:55:57.362Z,1.10
2023-05-22T07:59:25.658Z,4.50
2023-05-22T08:02:56.030Z,3.10
2023-05-22T08:06:25.044Z,5.97
2023-05-22T08:09:52.346Z,8.40
2023-05-22T08:13:19.910Z,5.35
2023-05-22T08:16:47.446Z,5.30
2023-05-22T08:20:15.402Z,6.30
2023-05-22T08:23:44.076Z,1.10
2023-05-22T08:27:11.301Z,2.95
2023-05-22T08:30:39.065Z,3.45
2023-05-22T08:34:07.298Z,3.53
2023-05-22T08:37:34.551Z,2.75
2023-05-22T08:41:03.329Z,2.17
2023-05-22T08:44:30.729Z,1.60
2023-05-22T08:47:59.694Z,3.70
2023-05-22T08:51:29.466Z,4.70
2023-05-22T08:54:58.448Z,5.45
2023-05-22T08:58:27.682Z,4.85
2023-05-22T09:01:55.237Z,15.55
2023-05-22T09:05:26.935Z,4.75
2023-05-22T09:08:54.904Z,8.57
2023-05-22T09:12:22.815Z,5.57
2023-05-22T09:15:51.544Z,6.57
2023-05-22T09:19:19.995Z,8.73
2023-05-22T09:22:48.530Z,3.42
2023-05-22T09:26:18.740Z,5.95
2023-05-22T09:29:52.529Z,8.38
2023-05-22T09:33:20.028Z,4.18
2023-05-22T09:36:49.436Z,10.73
2023-05-22T09:40:16.925Z,9.25
2023-05-22T09:43:51.115Z,9.55
2023-05-22T09:47:19.701Z,10.48
2023-05-22T09:50:48.861Z,13.80
2023-05-22T09:54:17.947Z,6.68
2023-05-22T09:57:48.337Z,3.65
2023-05-22T10:01:17.562Z,20.52
2023-05-22T10:04:50.169Z,19.17
2023-05-22T10:08:22.464Z,10.65
2023-05-22T10:11:54.473Z,18.67
2023-05-22T10:15:23.005Z,16.17
2023-05-22T10:18:52.582Z,13.40
2023-05-22T10:22:23.087Z,13.93
2023-05-22T10:25:51.920Z,19.08
2023-05-22T10:29:29.518Z,15.98
2023-05-22T10:33:04.639Z,11.43
2023-05-22T10:36:48.974Z,11.85
2023-05-22T10:40:30.567Z,18.98
2023-05-22T10:43:59.899Z,10.80
2023-05-22T10:47:27.825Z,18.20
2023-05-22T10:51:07.774Z,19.17
2023-05-22T10:54:40.585Z,22.85
2023-05-22T10:58:14.158Z,17.67
2023-05-22T11:01:41.904Z,14.95
2023-05-22T11:05:31.168Z,10.73
2023-05-22T11:09:30.273Z,18.70
2023-05-22T11:13:16.076Z,16.10
2023-05-22T11:16:47.424Z,10.63
2023-05-22T11:20:20.164Z,6.68
2023-05-22T11:23:54.101Z,13.35
2023-05-22T11:27:22.234Z,8.27
2023-05-22T11:30:49.966Z,10.75
2023-05-22T11:34:17.625Z,5.93
2023-05-22T11:37:45.123Z,13.32
2023-05-22T11:41:17.270Z,15.45
2023-05-22T11:44:44.398Z,16.38
2023-05-22T11:48:16.371Z,13.87
2023-05-22T11:51:44.091Z,9.43
2023-05-22T11:55:12.076Z,7.10
2023-05-22T11:58:41.084Z,16.25
2023-05-22T12:02:08.886Z,10.02
2023-05-22T12:05:38.364Z,9.60
2023-05-22T12:09:07.395Z,13.50
2023-05-22T12:12:36.593Z,14.02
2023-05-22T12:16:19.877Z,10.05
2023-05-22T12:19:48.835Z,12.07
2023-05-22T12:23:22.519Z,9.15
2023-05-22T12:26:59.832Z,7.25
2023-05-22T12:30:28.877Z,2.17
2023-05-22T12:33:57.557Z,2.53
2023-05-22T12:37:35.744Z,2.08
2023-05-22T12:41:05.951Z,4.13
2023-05-22T12:44:33.338Z,6.22
2023-05-22T12:48:02.097Z,5.13
2023-05-22T12:51:31.602Z,5.13
2023-05-22T12:54:59.530Z,4.50
2023-05-22T12:58:26.537Z,3.10
2023-05-22T13:01:58.212Z,3.63
2023-05-22T13:05:27.387Z,7.35
2023-05-22T13:08:54.816Z,5.68
2023-05-22T13:12:22.255Z,5.90
2023-05-22T13:15:49.614Z,8.60
2023-05-22T13:19:19.209Z,8.80
2023-05-22T13:22:47.958Z,10.38
2023-05-22T13:26:16.655Z,5.27
2023-05-22T13:29:44.471Z,2.55
2023-05-22T13:33:13.879Z,8.85
2023-05-22T13:36:41.252Z,3.83
2023-05-22T13:40:10.930Z,3.50
2023-05-22T13:43:38.938Z,10.00
2023-05-22T13:47:06.432Z,2.85
2023-05-22T13:50:33.789Z,7.13
2023-05-22T13:54:00.963Z,8.02
2023-05-22T13:57:29.684Z,4.07
2023-05-22T14:01:00.132Z,8.00
2023-05-22T14:04:28.284Z,4.05
2023-05-22T14:07:56.887Z,9.95
2023-05-22T14:11:24.628Z,5.72
2023-05-22T14:14:53.995Z,2.90
2023-05-22T14:18:21.382Z,2.00
2023-05-22T14:21:49.965Z,8.00
2023-05-22T14:25:17.556Z,5.70
2023-05-22T14:28:44.906Z,4.18
2023-05-22T14:32:14.170Z,7.22
2023-05-22T14:35:41.619Z,5.95
2023-05-22T14:39:09.036Z,4.20
2023-05-22T14:42:36.696Z,3.60
2023-05-22T14:46:04.760Z,8.13
2023-05-22T14:49:34.068Z,6.00
2023-05-22T14:53:02.986Z,6.15
2023-05-22T14:56:30.280Z,5.63
2023-05-22T14:59:58.303Z,6.60
2023-05-22T15:03:25.749Z,7.45
2023-05-22T15:06:54.661Z,4.80
2023-05-22T15:10:22.169Z,8.95
2023-05-22T15:13:49.340Z,3.38
2023-05-22T15:17:16.810Z,2.65
2023-05-22T15:20:43.907Z,8.02
2023-05-22T15:24:13.528Z,3.60
2023-05-22T15:27:41.404Z,4.53
2023-05-22T15:31:09.137Z,2.80
2023-05-22T15:34:36.277Z,6.67
2023-05-22T15:38:05.063Z,4.28
2023-05-22T15:41:33.945Z,3.93
2023-05-22T15:45:02.184Z,3.65
2023-05-22T15:48:32.419Z,6.07
2023-05-22T15:51:59.848Z,7.63
2023-05-22T15:55:27.242Z,5.20
2023-05-22T15:58:56.175Z,5.60
2023-05-22T16:02:23.447Z,6.50
2023-05-22T16:05:50.739Z,1.90
2023-05-22T16:09:19.551Z,1.50
2023-05-22T16:12:46.969Z,3.58
2023-05-22T16:16:17.788Z,6.28
2023-05-22T16:19:44.850Z,6.43
2023-05-22T16:23:12.166Z,2.75
2023-05-22T16:26:39.402Z,3.53
2023-05-22T16:30:08.800Z,2.92
2023-05-22T16:33:37.689Z,3.63
2023-05-22T16:37:05.638Z,8.25
2023-05-22T16:40:33.065Z,2.53
2023-05-22T16:44:00.830Z,4.63
2023-05-22T16:47:29.020Z,7.25
2023-05-22T16:50:57.900Z,5.18
2023-05-22T16:54:25.974Z,7.45
2023-05-22T16:57:53.322Z,8.40
2023-05-22T17:01:22.231Z,3.10
2023-05-22T17:04:49.515Z,3.28
2023-05-22T17:08:18.303Z,2.33
2023-05-22T17:11:45.372Z,1.70
2023-05-22T17:15:13.183Z,4.55
2023-05-22T17:18:40.931Z,4.57
2023-05-22T17:22:07.935Z,6.13
2023-05-22T17:25:37.042Z,5.43
2023-05-22T17:29:04.481Z,3.10
2023-05-22T17:32:32.377Z,4.18
2023-05-22T17:35:59.982Z,2.25
2023-05-22T17:39:28.745Z,1.30
2023-05-22T17:42:58.865Z,1.67
2023-05-22T17:46:26.788Z,1.65
2023-05-22T17:49:57.158Z,1.60
2023-05-22T17:53:24.426Z,1.63
2023-05-22T17:56:51.984Z,3.60
2023-05-22T18:00:20.809Z,4.75
2023-05-22T18:03:48.302Z,1.60
2023-05-22T18:07:16.273Z,1.27
2023-05-22T18:10:43.656Z,2.10
2023-05-22T18:14:11.265Z,2.40
2023-05-22T18:17:41.600Z,1.20
2023-05-22T18:21:10.985Z,1.40
2023-05-22T18:24:38.311Z,1.50
2023-05-22T18:28:06.907Z,1.23
2023-05-22T18:31:34.273Z,1.53
2023-05-22T18:35:04.785Z,1.20
2023-05-22T18:38:32.311Z,1.38
2023-05-22T18:42:00.318Z,1.38
2023-05-22T18:45:27.591Z,1.35
2023-05-22T18:48:56.550Z,2.20
2023-05-22T18:52:25.738Z,1.50
2023-05-22T18:55:54.130Z,1.20
2023-05-22T18:59:21.590Z,1.10
2023-05-22T19:02:49.106Z,1.60
2023-05-22T19:06:23.194Z,1.20
2023-05-22T19:10:08.485Z,1.20
2023-05-22T19:13:35.786Z,2.00
2023-05-22T19:17:03.972Z,1.50
2023-05-22T19:20:31.355Z,4.30
2023-05-22T19:24:00.449Z,1.10
2023-05-22T19:27:28.071Z,1.10
2023-05-22T19:30:58.290Z,1.10
2023-05-22T19:34:25.599Z,1.40
2023-05-22T19:37:52.777Z,1.10
2023-05-22T19:41:23.357Z,1.20
2023-05-22T19:44:53.330Z,1.20
2023-05-22T19:48:21.533Z,1.20
2023-05-22T19:51:49.247Z,3.15
2023-05-22T19:55:16.743Z,1.10
2023-05-22T19:58:45.399Z,1.20
2023-05-22T20:02:13.227Z,2.00
2023-05-22T20:05:41.960Z,2.70
2023-05-22T20:09:10.427Z,1.20
2023-05-22T20:12:37.569Z,1.20
2023-05-22T20:16:12.078Z,3.20
2023-05-22T20:19:39.591Z,2.20
2023-05-22T20:23:07.079Z,1.20
2023-05-22T20:26:34.231Z,1.20
2023-05-22T20:30:01.274Z,1.40
2023-05-22T20:33:30.342Z,1.80
2023-05-22T20:36:58.861Z,1.10
2023-05-22T20:40:27.030Z,1.10
2023-05-22T20:43:54.720Z,1.10
2023-05-22T20:47:21.951Z,3.58
2023-05-22T20:50:50.983Z,1.80
2023-05-22T20:54:18.496Z,1.30
2023-05-22T20:57:46.015Z,1.10
2023-05-22T21:01:14.987Z,1.10
2023-05-22T21:04:42.317Z,1.10
2023-05-22T21:08:11.353Z,1.97
2023-05-22T21:11:38.806Z,1.60
2023-05-22T21:15:06.443Z,1.30
2023-05-22T21:18:33.931Z,1.23
2023-05-22T21:22:01.606Z,10.40
2023-05-22T21:25:31.400Z,1.20
2023-05-22T21:28:59.887Z,1.20
2023-05-22T21:32:27.136Z,1.80
2023-05-22T21:35:54.343Z,1.10
2023-05-22T21:39:21.805Z,1.10
2023-05-22T21:42:51.131Z,1.10
2023-05-22T21:46:18.375Z,1.20
